Abha, Saudi Arabia

2:13 AM AST on December 07, 2016 (GMT +0300)
Abha | | Change Station

Elev 6857 ft 18.24 °N, 42.66 °E | Updated 13 minutes ago

Clear
Clear
54 °F
Feels Like 54 °F
N
0
Wind Variable Wind from North

Today
High -- | Low -- °F
--% Chance of Precip.
Yesterday
High -- | Low -- °F
Precip. -- in
Pressure 30.27 in
Visibility -9999.0 miles
Clouds
Dew Point 52 °F
Humidity 94%
Rainfall 0.00 in
Snow Depth Not available.
6:28 AM 5:33 PM
Waxing Crescent, 46% visible
METAR OEAB 062300Z 00000KT CAVOK 12/11 Q1025 NOSIG
Pressure 30.27 in
Visibility -9999.0 miles
Clouds
Dew Point 52 °F
Humidity 94%
Rainfall 0.00 in
Snow Depth Not available.
6:28 AM 5:33 PM
Waxing Crescent, 46% visible
METAR OEAB 062300Z 00000KT CAVOK 12/11 Q1025 NOSIG

10-Day Weather Forecast

No radar image for this location.
×

Almanac

Astronomy

Dec. 07, 2016 Rise Set
Actual Time
Civil Twilight
Nautical Twilight
Astronomical Twilight
Moon
Length of Visible Light
Length of Day
Tomorrow will be .
, % of the Moon is Illuminated

Today's Extremes

Country Highs Country Lows

Community

WunderPhotos

Upload Photos

1,956,044 photos uploaded!

WunderBlog® & News

Nearby

Air Quality

  Air Quality AQ Index Pollutant
Not available.

Snow Depth

Station Depth Elevation

Earthquake Activity

City Distance Mag. Time & Date
Minimum magnitude displayed is 2.5.

Coastal Water Temperatures

Place Temperature

Stations

Nearby Weather Stations

Station Location Temp. Windchill Dew Point Humidity Wind Precip. Elev Updated Type